createdAt,value
2018-04-01T00:00:28.387Z,37.92
2018-04-01T00:02:54.512Z,37.89
2018-04-01T00:05:20.516Z,37.91
2018-04-01T00:07:46.493Z,37.91
2018-04-01T00:10:12.468Z,37.90
2018-04-01T00:12:38.454Z,37.91
2018-04-01T00:15:04.466Z,37.88
2018-04-01T00:17:30.480Z,37.86
2018-04-01T00:19:56.455Z,37.86
2018-04-01T00:22:22.440Z,37.85
2018-04-01T00:24:48.443Z,37.84
2018-04-01T00:27:14.421Z,37.84
2018-04-01T00:29:40.412Z,37.84
2018-04-01T00:32:06.393Z,37.82
2018-04-01T00:34:32.342Z,37.78
2018-04-01T00:36:58.368Z,37.77
2018-04-01T00:39:24.385Z,37.75
2018-04-01T00:41:50.405Z,37.77
2018-04-01T00:44:16.416Z,37.72
2018-04-01T00:46:42.367Z,37.72
2018-04-01T00:49:08.349Z,37.72
2018-04-01T00:51:34.335Z,37.69
2018-04-01T00:54:00.350Z,37.70
2018-04-01T00:56:26.298Z,37.65
2018-04-01T00:58:52.311Z,37.63
2018-04-01T01:01:18.260Z,37.61
2018-04-01T01:03:44.248Z,37.60
2018-04-01T01:06:10.257Z,37.59
2018-04-01T01:08:36.214Z,37.58
2018-04-01T01:11:02.206Z,37.57
2018-04-01T01:13:28.212Z,37.56
2018-04-01T01:15:54.201Z,37.55
2018-04-01T01:18:20.177Z,37.57
2018-04-01T01:20:46.180Z,37.53
2018-04-01T01:23:12.124Z,37.53
2018-04-01T01:25:38.134Z,37.51
2018-04-01T01:28:04.087Z,37.45
2018-04-01T01:30:30.064Z,37.47
2018-04-01T01:32:56.078Z,37.41
2018-04-01T01:35:22.021Z,37.43
2018-04-01T01:37:48.043Z,37.40
2018-04-01T01:40:14.020Z,37.41
2018-04-01T01:42:40.033Z,37.41
2018-04-01T01:45:06.029Z,37.40
2018-04-01T01:47:32.036Z,37.40
2018-04-01T01:49:57.985Z,37.39
2018-04-01T01:52:24.000Z,37.38
2018-04-01T01:54:49.989Z,37.40
2018-04-01T01:57:15.946Z,37.36
2018-04-01T01:59:41.921Z,37.37
2018-04-01T02:02:07.901Z,37.33
2018-04-01T02:04:33.880Z,37.33
2018-04-01T02:06:59.869Z,37.33
2018-04-01T02:09:25.860Z,37.32
2018-04-01T02:11:51.871Z,37.33
2018-04-01T02:14:17.817Z,37.36
2018-04-01T02:16:43.864Z,37.34
2018-04-01T02:19:09.923Z,37.38
2018-04-01T02:21:35.934Z,37.34
2018-04-01T02:24:01.876Z,37.35
2018-04-01T02:26:27.890Z,37.31
2018-04-01T02:28:53.841Z,37.30
2018-04-01T02:31:19.841Z,37.30
2018-04-01T02:33:45.838Z,37.31
2018-04-01T02:36:11.782Z,37.28
2018-04-01T02:38:37.766Z,37.29
2018-04-01T02:41:03.776Z,37.22
2018-04-01T02:43:29.753Z,37.28
2018-04-01T02:45:55.752Z,37.33
2018-04-01T02:48:21.729Z,37.27
2018-04-01T02:50:47.708Z,37.28
2018-04-01T02:53:13.712Z,37.26
2018-04-01T02:55:39.689Z,37.25
2018-04-01T02:58:05.673Z,37.24
2018-04-01T03:00:31.646Z,37.26
2018-04-01T03:02:57.600Z,37.28
2018-04-01T03:05:23.603Z,37.29
2018-04-01T03:07:49.586Z,37.29
2018-04-01T03:10:15.592Z,37.29
2018-04-01T03:12:41.568Z,37.28
2018-04-01T03:15:07.521Z,37.27
2018-04-01T03:17:33.498Z,37.29
2018-04-01T03:19:59.515Z,37.29
2018-04-01T03:22:25.507Z,37.26
2018-04-01T03:24:51.487Z,37.29
2018-04-01T03:27:17.469Z,37.29
2018-04-01T03:29:43.449Z,37.30
2018-04-01T03:32:09.398Z,37.28
2018-04-01T03:34:35.412Z,37.30
2018-04-01T03:37:01.363Z,37.28
2018-04-01T03:39:27.346Z,37.28
2018-04-01T03:41:53.357Z,37.28
2018-04-01T03:44:19.309Z,37.28
2018-04-01T03:46:45.325Z,37.31
2018-04-01T03:49:11.297Z,37.29
2018-04-01T03:51:37.311Z,37.33
2018-04-01T03:54:03.263Z,37.32
2018-04-01T03:56:29.242Z,37.33
2018-04-01T03:58:55.223Z,37.30
2018-04-01T04:01:21.206Z,37.33
2018-04-01T04:03:47.215Z,37.30
2018-04-01T04:06:13.197Z,37.32
2018-04-01T04:08:39.205Z,37.33
2018-04-01T04:11:05.176Z,37.33
2018-04-01T04:13:31.159Z,37.32
2018-04-01T04:15:57.133Z,37.32
2018-04-01T04:18:23.081Z,37.32
2018-04-01T04:20:49.096Z,37.30
2018-04-01T04:23:15.064Z,37.31
2018-04-01T04:25:41.051Z,37.32
2018-04-01T04:28:07.073Z,37.34
2018-04-01T04:30:33.060Z,37.37
2018-04-01T04:32:59.039Z,37.34
2018-04-01T04:35:25.049Z,37.35
2018-04-01T04:37:51.004Z,37.35
2018-04-01T04:40:17.046Z,37.32
2018-04-01T04:42:42.996Z,37.35
2018-04-01T04:45:09.008Z,37.35
2018-04-01T04:47:35.007Z,37.34
2018-04-01T04:50:00.958Z,37.35
2018-04-01T04:52:26.950Z,37.32
2018-04-01T04:54:52.959Z,37.37
2018-04-01T04:57:18.941Z,37.31
2018-04-01T04:59:44.891Z,37.30
2018-04-01T05:02:10.915Z,37.32
2018-04-01T05:04:36.929Z,37.32
2018-04-01T05:07:02.871Z,37.30
2018-04-01T05:09:28.889Z,37.30
2018-04-01T05:11:54.869Z,37.31
2018-04-01T05:14:20.832Z,37.30
2018-04-01T05:16:46.815Z,37.30
2018-04-01T05:19:12.793Z,37.32
2018-04-01T05:21:38.808Z,37.32
2018-04-01T05:24:04.784Z,37.31
2018-04-01T05:26:30.756Z,37.32
2018-04-01T05:28:56.766Z,37.31
2018-04-01T05:31:22.767Z,37.32
2018-04-01T05:33:48.712Z,37.31
2018-04-01T05:36:14.736Z,37.33
2018-04-01T05:38:40.750Z,37.31
2018-04-01T05:41:06.704Z,37.31
2018-04-01T05:43:32.684Z,37.30
2018-04-01T05:45:58.719Z,37.31
2018-04-01T05:48:24.666Z,37.31
2018-04-01T05:50:50.619Z,37.28
2018-04-01T05:53:16.589Z,37.31
2018-04-01T05:55:42.567Z,37.29
2018-04-01T05:58:08.551Z,37.28
2018-04-01T06:00:34.525Z,37.29
2018-04-01T06:03:00.505Z,37.27
2018-04-01T06:05:26.497Z,37.27
2018-04-01T06:07:52.476Z,37.26
2018-04-01T06:10:18.448Z,37.26
2018-04-01T06:12:44.468Z,37.25
2018-04-01T06:15:10.457Z,36.91
2018-04-01T06:17:36.463Z,37.27
2018-04-01T06:20:02.434Z,37.43
2018-04-01T06:22:28.441Z,37.39
2018-04-01T06:24:54.453Z,37.56
2018-04-01T06:27:20.442Z,37.50
2018-04-01T06:29:46.388Z,37.58
2018-04-01T06:32:12.408Z,37.54
2018-04-01T06:34:38.355Z,37.56
2018-04-01T06:37:04.350Z,37.55
2018-04-01T06:39:30.312Z,37.51
2018-04-01T06:41:56.300Z,37.59
2018-04-01T06:44:22.339Z,37.58
2018-04-01T06:46:48.288Z,37.48
2018-04-01T06:49:14.270Z,37.39
2018-04-01T06:51:40.283Z,37.40
2018-04-01T06:54:06.341Z,37.38
2018-04-01T06:56:32.311Z,37.37
2018-04-01T06:58:58.325Z,37.34
2018-04-01T07:01:24.278Z,37.30
2018-04-01T07:03:50.299Z,37.24
2018-04-01T07:06:16.254Z,37.20
2018-04-01T07:08:42.240Z,37.17
2018-04-01T07:11:08.244Z,37.15
2018-04-01T07:13:34.201Z,37.15
2018-04-01T07:16:00.187Z,37.12
2018-04-01T07:18:26.176Z,37.11
2018-04-01T07:20:52.261Z,37.09
2018-04-01T07:23:18.237Z,37.07
2018-04-01T07:25:44.222Z,37.11
2018-04-01T07:28:10.206Z,37.08
2018-04-01T07:30:36.190Z,37.03
2018-04-01T07:33:02.178Z,37.04
2018-04-01T07:35:28.157Z,36.99
2018-04-01T07:37:54.195Z,37.01
2018-04-01T07:40:20.180Z,36.96
2018-04-01T07:42:46.199Z,36.99
2018-04-01T07:45:12.409Z,36.86
2018-04-01T07:47:38.423Z,36.83
2018-04-01T07:50:04.666Z,36.90
2018-04-01T07:52:47.417Z,36.92
2018-04-01T07:55:13.462Z,36.95
2018-04-01T07:57:39.469Z,36.92
2018-04-01T08:00:05.495Z,36.92
2018-04-01T08:02:31.428Z,36.88
2018-04-01T08:04:57.408Z,36.89
2018-04-01T08:07:23.401Z,36.92
2018-04-01T08:09:49.515Z,36.96
2018-04-01T08:12:15.508Z,36.97
2018-04-01T08:14:41.500Z,36.91
2018-04-01T08:17:07.485Z,36.90
2018-04-01T08:19:33.448Z,36.81
2018-04-01T08:21:59.426Z,36.79
2018-04-01T08:24:25.433Z,36.74
2018-04-01T08:26:51.455Z,36.69
2018-04-01T08:29:17.434Z,36.60
2018-04-01T08:31:43.427Z,36.57
2018-04-01T08:34:09.414Z,36.52
2018-04-01T08:36:35.425Z,36.48
2018-04-01T08:39:01.404Z,36.58
2018-04-01T08:41:27.384Z,36.54
2018-04-01T08:43:53.405Z,36.39
2018-04-01T08:46:19.416Z,36.30
2018-04-01T08:48:45.394Z,36.16
2018-04-01T08:51:11.381Z,36.33
2018-04-01T08:53:37.362Z,36.20
2018-04-01T08:56:03.351Z,36.14
2018-04-01T08:58:29.305Z,36.12
2018-04-01T09:00:55.282Z,36.14
2018-04-01T09:03:21.262Z,36.05
2018-04-01T09:05:47.255Z,36.00
2018-04-01T09:08:13.328Z,36.03
2018-04-01T09:10:39.287Z,36.10
2018-04-01T09:13:05.252Z,36.06
2018-04-01T09:15:31.245Z,36.00
2018-04-01T09:17:57.224Z,36.02
2018-04-01T09:20:23.213Z,35.90
2018-04-01T09:22:49.225Z,35.86
2018-04-01T09:25:15.177Z,35.90
2018-04-01T09:27:41.158Z,35.86
2018-04-01T09:30:07.143Z,35.88
2018-04-01T09:32:33.143Z,35.84
2018-04-01T09:34:59.104Z,35.82
2018-04-01T09:37:25.115Z,35.73
2018-04-01T09:39:51.123Z,35.65
2018-04-01T09:42:17.096Z,35.57
2018-04-01T09:44:43.046Z,35.56
2018-04-01T09:47:09.068Z,35.54
2018-04-01T09:49:35.017Z,35.58
2018-04-01T09:52:01.160Z,35.41
2018-04-01T09:54:27.182Z,35.38
2018-04-01T09:56:53.137Z,35.38
2018-04-01T09:59:19.115Z,35.38
2018-04-01T10:01:45.096Z,35.31
2018-04-01T10:04:11.108Z,35.28
2018-04-01T10:06:37.088Z,35.25
2018-04-01T10:09:03.097Z,35.47
2018-04-01T10:11:29.057Z,35.35
2018-04-01T10:13:55.048Z,35.54
2018-04-01T10:16:21.029Z,35.37
2018-04-01T10:18:47.041Z,35.38
2018-04-01T10:21:16.037Z,35.33
2018-04-01T10:23:42.061Z,35.31
2018-04-01T10:26:08.021Z,35.38
2018-04-01T10:28:34.054Z,35.39
2018-04-01T10:31:00.091Z,35.40
2018-04-01T10:33:26.081Z,35.44
2018-04-01T10:35:52.033Z,35.44
2018-04-01T10:38:18.040Z,35.42
2018-04-01T10:40:44.050Z,35.52
2018-04-01T10:43:10.037Z,35.51
2018-04-01T10:45:36.226Z,35.50
2018-04-01T10:48:10.253Z,35.55
2018-04-01T10:50:36.263Z,35.49
2018-04-01T10:53:02.206Z,35.45
2018-04-01T10:55:28.187Z,35.52
2018-04-01T10:57:54.174Z,35.49
2018-04-01T11:00:20.157Z,35.43
2018-04-01T11:02:46.172Z,35.57
2018-04-01T11:07:38.099Z,35.43
2018-04-01T11:10:04.084Z,35.49
2018-04-01T11:12:30.136Z,35.44
2018-04-01T11:14:56.093Z,35.67
2018-04-01T11:17:22.076Z,35.56
2018-04-01T11:19:48.059Z,35.53
2018-04-01T11:22:14.105Z,35.49
2018-04-01T11:24:40.070Z,35.53
2018-04-01T11:27:06.082Z,35.46
2018-04-01T11:29:32.053Z,35.37
2018-04-01T11:31:58.008Z,35.45
2018-04-01T11:34:24.148Z,35.32
2018-04-01T11:36:50.133Z,35.28
2018-04-01T11:39:16.117Z,35.39
2018-04-01T11:41:42.106Z,35.11
2018-04-01T11:44:08.115Z,35.13
2018-04-01T11:46:34.106Z,35.15
2018-04-01T11:49:00.076Z,35.12
2018-04-01T11:51:26.070Z,35.27
2018-04-01T11:53:52.048Z,35.29
2018-04-01T11:56:18.020Z,35.35
2018-04-01T11:58:44.019Z,35.50
2018-04-01T12:01:09.989Z,35.51
2018-04-01T12:03:35.982Z,35.59
2018-04-01T12:06:01.967Z,35.66
2018-04-01T12:08:28.055Z,35.73
2018-04-01T12:10:54.000Z,35.75
2018-04-01T12:13:20.038Z,35.78
2018-04-01T12:15:46.012Z,35.84
2018-04-01T12:18:12.180Z,35.87
2018-04-01T12:20:38.128Z,35.89
2018-04-01T12:23:04.164Z,36.00
2018-04-01T12:25:30.201Z,36.07
2018-04-01T12:27:56.262Z,36.05
2018-04-01T12:30:22.324Z,36.06
2018-04-01T12:32:48.386Z,36.11
2018-04-01T12:35:14.604Z,36.13
2018-04-01T12:37:40.633Z,36.11
2018-04-01T12:40:06.792Z,36.08
2018-04-01T12:42:32.951Z,36.14
2018-04-01T12:44:58.965Z,36.07
2018-04-01T12:47:25.043Z,36.02
2018-04-01T12:49:51.059Z,35.99
2018-04-01T12:52:17.326Z,35.97
2018-04-01T12:54:43.498Z,35.94
2018-04-01T12:57:09.527Z,35.86
2018-04-01T12:59:35.609Z,35.87
2018-04-01T13:02:01.610Z,35.85
2018-04-01T13:04:27.627Z,35.82
2018-04-01T13:06:53.608Z,35.77
2018-04-01T13:09:19.601Z,35.67
2018-04-01T13:11:45.606Z,35.62
2018-04-01T13:14:11.581Z,35.69
2018-04-01T13:16:38.159Z,35.80
2018-04-01T13:19:04.255Z,35.75
2018-04-01T13:21:30.572Z,36.08
2018-04-01T13:23:56.611Z,36.36
2018-04-01T13:26:22.600Z,36.53
2018-04-01T13:28:48.585Z,36.77
2018-04-01T13:31:14.560Z,36.67
2018-04-01T13:33:40.558Z,36.61
2018-04-01T13:36:06.537Z,36.68
2018-04-01T13:38:32.546Z,36.71
2018-04-01T13:40:58.529Z,36.76
2018-04-01T13:43:24.501Z,36.65
2018-04-01T13:45:50.490Z,36.61
2018-04-01T13:48:16.502Z,36.66
2018-04-01T13:50:42.465Z,36.68
2018-04-01T13:53:08.444Z,36.66
2018-04-01T13:55:34.430Z,36.70
2018-04-01T13:58:00.424Z,36.72
2018-04-01T14:00:26.432Z,36.75
2018-04-01T14:02:52.394Z,36.67
2018-04-01T14:05:18.370Z,36.60
2018-04-01T14:07:44.450Z,36.59
2018-04-01T14:10:10.470Z,36.38
2018-04-01T14:12:36.426Z,36.27
2018-04-01T14:15:02.411Z,36.29
2018-04-01T14:17:28.393Z,36.21
2018-04-01T14:19:54.402Z,36.09
2018-04-01T14:22:20.423Z,36.03
2018-04-01T14:24:46.394Z,35.96
2018-04-01T14:27:12.370Z,35.86
2018-04-01T14:29:38.372Z,35.83
2018-04-01T14:32:04.364Z,35.83
2018-04-01T14:34:30.323Z,35.79
2018-04-01T14:36:56.339Z,35.77
2018-04-01T14:39:22.349Z,35.73
2018-04-01T14:41:48.297Z,35.64
2018-04-01T14:44:14.290Z,35.59
2018-04-01T14:46:40.274Z,35.45
2018-04-01T14:49:06.282Z,35.04
2018-04-01T14:51:32.374Z,35.69
2018-04-01T14:53:58.500Z,35.77
2018-04-01T14:56:24.488Z,36.09
2018-04-01T14:58:50.497Z,36.26
2018-04-01T15:01:16.448Z,36.47
2018-04-01T15:03:42.474Z,36.71
2018-04-01T15:06:08.414Z,36.61
2018-04-01T15:08:34.462Z,36.67
2018-04-01T15:11:00.453Z,36.51
2018-04-01T15:13:27.157Z,36.39
2018-04-01T15:15:53.151Z,36.38
2018-04-01T15:18:19.171Z,36.39
2018-04-01T15:20:45.153Z,36.12
2018-04-01T15:23:14.910Z,35.89
2018-04-01T15:25:41.091Z,35.86
2018-04-01T15:28:07.112Z,35.62
2018-04-01T15:30:33.072Z,35.70
2018-04-01T15:33:00.277Z,35.71
2018-04-01T15:35:27.418Z,35.70
2018-04-01T15:37:55.180Z,35.95
2018-04-01T15:40:21.390Z,35.88
2018-04-01T15:43:09.820Z,36.15
2018-04-01T15:45:35.796Z,36.11
2018-04-01T15:48:18.494Z,36.34
2018-04-01T15:51:07.173Z,36.42
2018-04-01T15:53:33.712Z,36.83
2018-04-01T15:56:04.671Z,37.01
2018-04-01T15:58:31.173Z,37.02
2018-04-01T16:00:57.845Z,37.11
2018-04-01T16:03:24.969Z,37.14
2018-04-01T16:05:56.111Z,36.57
2018-04-01T16:08:29.793Z,36.62
2018-04-01T16:10:56.012Z,36.89
2018-04-01T16:13:22.696Z,36.90
2018-04-01T16:15:49.523Z,36.89
2018-04-01T16:18:16.479Z,36.92
2018-04-01T16:20:44.830Z,36.99
2018-04-01T16:23:12.307Z,36.91
2018-04-01T16:25:38.705Z,36.91
2018-04-01T16:28:04.694Z,36.87
2018-04-01T16:30:30.765Z,36.83
2018-04-01T16:32:56.844Z,36.83
2018-04-01T16:35:22.922Z,36.91
2018-04-01T16:37:49.594Z,36.89
2018-04-01T16:40:20.096Z,36.85
2018-04-01T16:42:46.553Z,36.87
2018-04-01T16:45:17.943Z,36.75
2018-04-01T16:47:44.374Z,36.74
2018-04-01T16:50:10.584Z,36.75
2018-04-01T16:52:37.205Z,36.94
2018-04-01T16:55:23.042Z,36.92
2018-04-01T16:57:49.107Z,36.95
2018-04-01T17:00:15.935Z,37.13
2018-04-01T17:05:37.200Z,37.22
2018-04-01T17:08:05.983Z,37.49
2018-04-01T17:10:34.464Z,37.43
2018-04-01T17:13:01.158Z,37.58
2018-04-01T17:15:28.253Z,37.73
2018-04-01T17:17:56.431Z,37.84
2018-04-01T17:20:33.595Z,37.91
2018-04-01T17:23:00.924Z,38.01
2018-04-01T17:25:28.330Z,37.98
2018-04-01T17:27:55.279Z,38.09
2018-04-01T17:30:24.268Z,38.16
2018-04-01T17:32:50.963Z,38.38
2018-04-01T17:35:17.652Z,38.38
2018-04-01T17:37:49.236Z,38.54
2018-04-01T17:43:01.866Z,38.62
2018-04-01T17:45:28.608Z,38.88
2018-04-01T17:47:55.534Z,39.05
2018-04-01T17:50:24.736Z,38.74
2018-04-01T17:52:54.470Z,39.04
2018-04-01T17:55:22.513Z,39.01
2018-04-01T17:57:48.772Z,38.81
2018-04-01T18:00:17.676Z,38.87
2018-04-01T18:02:52.767Z,38.77
2018-04-01T18:05:19.519Z,39.00
2018-04-01T18:07:46.486Z,39.13
2018-04-01T18:10:13.090Z,38.95
2018-04-01T18:12:41.076Z,39.20
2018-04-01T18:15:08.891Z,39.19
2018-04-01T18:17:35.262Z,38.77
2018-04-01T18:20:02.757Z,39.29
2018-04-01T18:22:30.352Z,39.38
2018-04-01T18:24:57.225Z,39.33
2018-04-01T18:27:23.900Z,38.91
2018-04-01T18:29:50.442Z,39.17
2018-04-01T18:32:16.509Z,39.10
2018-04-01T18:34:43.520Z,38.98
2018-04-01T18:37:09.703Z,39.40
2018-04-01T18:39:35.737Z,39.75
2018-04-01T18:42:01.958Z,39.79
2018-04-01T18:44:28.192Z,39.92
2018-04-01T18:46:54.860Z,39.69
2018-04-01T18:49:21.571Z,39.73
2018-04-01T18:51:49.350Z,39.31
2018-04-01T18:54:15.564Z,39.63
2018-04-01T18:56:42.407Z,39.43
2018-04-01T18:59:08.843Z,39.62
2018-04-01T19:01:35.172Z,39.99
2018-04-01T19:04:02.020Z,39.30
2018-04-01T19:06:28.256Z,39.81
2018-04-01T19:08:55.536Z,39.41
2018-04-01T19:11:22.140Z,39.58
2018-04-01T19:13:48.782Z,39.82
2018-04-01T19:16:14.846Z,39.62
2018-04-01T19:18:41.120Z,39.63
2018-04-01T19:21:07.529Z,39.71
2018-04-01T19:23:33.838Z,39.83
2018-04-01T19:26:00.642Z,39.53
2018-04-01T19:28:29.521Z,39.64
2018-04-01T19:30:56.492Z,39.74
2018-04-01T19:33:22.648Z,39.89
2018-04-01T19:35:48.953Z,39.34
2018-04-01T19:38:14.996Z,39.44
2018-04-01T19:40:40.996Z,39.65
2018-04-01T19:43:07.058Z,39.63
2018-04-01T19:45:33.186Z,39.63
2018-04-01T19:47:59.924Z,39.72
2018-04-01T19:50:26.049Z,39.51
2018-04-01T19:52:52.059Z,39.14
2018-04-01T19:55:18.046Z,39.33
2018-04-01T19:57:44.028Z,39.35
2018-04-01T20:00:10.050Z,39.38
2018-04-01T20:02:36.821Z,39.09
2018-04-01T20:05:02.844Z,39.31
2018-04-01T20:07:29.038Z,39.30
2018-04-01T20:09:55.197Z,39.39
2018-04-01T20:12:21.180Z,39.26
2018-04-01T20:14:47.178Z,39.09
2018-04-01T20:17:13.185Z,39.09
2018-04-01T20:19:39.226Z,39.09
2018-04-01T20:22:05.212Z,38.80
2018-04-01T20:24:34.133Z,38.63
2018-04-01T20:27:00.097Z,38.74
2018-04-01T20:29:26.074Z,38.72
2018-04-01T20:31:52.093Z,38.58
2018-04-01T20:34:18.082Z,38.64
2018-04-01T20:36:44.074Z,38.92
2018-04-01T20:39:10.094Z,39.24
2018-04-01T20:41:36.092Z,39.35
2018-04-01T20:44:02.023Z,38.83
2018-04-01T20:46:28.003Z,38.92
2018-04-01T20:48:54.021Z,38.53
2018-04-01T20:51:19.971Z,38.50
2018-04-01T20:53:45.944Z,38.62
2018-04-01T20:56:11.960Z,38.50
2018-04-01T20:58:37.900Z,38.35
2018-04-01T21:01:03.890Z,38.29
2018-04-01T21:03:29.867Z,38.30
2018-04-01T21:05:55.884Z,38.20
2018-04-01T21:08:21.897Z,38.17
2018-04-01T21:10:47.849Z,38.12
2018-04-01T21:13:13.862Z,38.12
2018-04-01T21:15:39.806Z,37.99
2018-04-01T21:18:05.819Z,37.99
2018-04-01T21:20:31.829Z,37.95
2018-04-01T21:22:57.806Z,37.84
2018-04-01T21:25:23.757Z,37.84
2018-04-01T21:27:49.737Z,37.77
2018-04-01T21:30:15.753Z,37.77
2018-04-01T21:32:41.712Z,37.77
2018-04-01T21:35:07.720Z,37.75
2018-04-01T21:37:33.698Z,37.69
2018-04-01T21:39:59.707Z,37.57
2018-04-01T21:42:25.661Z,37.64
2018-04-01T21:44:51.640Z,37.61
2018-04-01T21:47:17.623Z,37.60
2018-04-01T21:49:43.611Z,37.63
2018-04-01T21:52:09.587Z,37.50
2018-04-01T21:54:35.594Z,37.45
2018-04-01T21:57:01.573Z,37.40
2018-04-01T21:59:27.552Z,37.43
2018-04-01T22:01:53.557Z,37.37
2018-04-01T22:04:19.537Z,37.31
2018-04-01T22:06:45.607Z,37.15
2018-04-01T22:09:11.507Z,37.32
2018-04-01T22:11:37.473Z,37.14
2018-04-01T22:14:03.462Z,37.25
2018-04-01T22:16:29.476Z,37.17
2018-04-01T22:18:55.432Z,37.20
2018-04-01T22:21:21.415Z,37.08
2018-04-01T22:23:47.420Z,37.02
2018-04-01T22:26:13.388Z,37.01
2018-04-01T22:28:39.344Z,37.01
2018-04-01T22:31:05.349Z,36.96
2018-04-01T22:33:31.337Z,36.91
2018-04-01T22:35:57.317Z,36.78
2018-04-01T22:38:23.297Z,36.75
2018-04-01T22:40:49.277Z,36.68
2018-04-01T22:43:15.261Z,36.77
2018-04-01T22:45:41.237Z,36.72
2018-04-01T22:48:07.217Z,36.56
2018-04-01T22:50:33.200Z,36.55
2018-04-01T22:52:59.209Z,36.60
2018-04-01T22:55:25.206Z,36.61
2018-04-01T22:57:51.173Z,36.64
2018-04-01T23:00:17.125Z,36.46
2018-04-01T23:02:43.138Z,36.53
2018-04-01T23:05:09.082Z,36.43
2018-04-01T23:07:35.069Z,36.40
2018-04-01T23:10:01.045Z,36.48
2018-04-01T23:12:27.060Z,36.31
2018-04-01T23:14:53.040Z,36.39
2018-04-01T23:17:19.016Z,36.31
2018-04-01T23:19:44.997Z,36.31
2018-04-01T23:22:10.975Z,36.17
2018-04-01T23:24:36.953Z,36.33
2018-04-01T23:27:02.967Z,36.24
2018-04-01T23:29:28.911Z,36.12
2018-04-01T23:31:54.920Z,36.06
2018-04-01T23:34:20.863Z,36.05
2018-04-01T23:36:46.852Z,35.96
2018-04-01T23:39:12.869Z,35.94
2018-04-01T23:41:38.844Z,35.95
2018-04-01T23:44:04.868Z,36.03
2018-04-01T23:46:30.839Z,36.02
2018-04-01T23:48:56.788Z,35.75
2018-04-01T23:51:22.765Z,35.77
2018-04-01T23:53:48.766Z,35.96
2018-04-01T23:56:14.724Z,35.76
2018-04-01T23:58:40.742Z,35.88
